sensor_id;sensor_type;location;lat;lon;timestamp;pressure;altitude;pressure_sealevel;temperature
32039;BMP280;18549;42.286;22.688;2022-10-17T00:01:05;96934.16;;;14.52
32039;BMP280;18549;42.286;22.688;2022-10-17T00:03:32;96931.00;;;14.49
32039;BMP280;18549;42.286;22.688;2022-10-17T00:06:04;96933.69;;;14.46
32039;BMP280;18549;42.286;22.688;2022-10-17T00:08:35;96942.44;;;14.39
32039;BMP280;18549;42.286;22.688;2022-10-17T00:11:06;96932.53;;;14.37
32039;BMP280;18549;42.286;22.688;2022-10-17T00:13:34;96935.00;;;14.37
32039;BMP280;18549;42.286;22.688;2022-10-17T00:16:01;96936.00;;;14.35
32039;BMP280;18549;42.286;22.688;2022-10-17T00:18:29;96936.91;;;14.34
32039;BMP280;18549;42.286;22.688;2022-10-17T00:20:56;96941.16;;;14.32
32039;BMP280;18549;42.286;22.688;2022-10-17T00:23:23;96939.66;;;14.29
32039;BMP280;18549;42.286;22.688;2022-10-17T00:25:57;96944.53;;;14.31
32039;BMP280;18549;42.286;22.688;2022-10-17T00:28:24;96941.50;;;14.26
32039;BMP280;18549;42.286;22.688;2022-10-17T00:30:54;96944.19;;;14.23
32039;BMP280;18549;42.286;22.688;2022-10-17T00:33:22;96945.97;;;14.21
32039;BMP280;18549;42.286;22.688;2022-10-17T00:36:01;96944.25;;;14.21
32039;BMP280;18549;42.286;22.688;2022-10-17T00:38:28;96946.84;;;14.20
32039;BMP280;18549;42.286;22.688;2022-10-17T00:40:56;96955.22;;;14.19
32039;BMP280;18549;42.286;22.688;2022-10-17T00:43:23;96957.16;;;14.14
32039;BMP280;18549;42.286;22.688;2022-10-17T00:45:51;96960.56;;;14.13
32039;BMP280;18549;42.286;22.688;2022-10-17T00:48:18;96964.09;;;14.09
32039;BMP280;18549;42.286;22.688;2022-10-17T00:50:48;96962.53;;;14.08
32039;BMP280;18549;42.286;22.688;2022-10-17T00:53:17;96961.78;;;14.06
32039;BMP280;18549;42.286;22.688;2022-10-17T00:55:47;96966.06;;;14.04
32039;BMP280;18549;42.286;22.688;2022-10-17T00:58:15;96974.41;;;14.03
32039;BMP280;18549;42.286;22.688;2022-10-17T01:00:44;96969.41;;;14.03
32039;BMP280;18549;42.286;22.688;2022-10-17T01:03:11;96961.25;;;14.01
32039;BMP280;18549;42.286;22.688;2022-10-17T01:05:39;96965.56;;;13.98
32039;BMP280;18549;42.286;22.688;2022-10-17T01:08:08;96967.59;;;13.91
32039;BMP280;18549;42.286;22.688;2022-10-17T01:10:44;96957.88;;;13.87
32039;BMP280;18549;42.286;22.688;2022-10-17T01:13:21;96956.53;;;13.82
32039;BMP280;18549;42.286;22.688;2022-10-17T01:15:57;96959.81;;;13.82
32039;BMP280;18549;42.286;22.688;2022-10-17T01:18:35;96953.22;;;13.81
32039;BMP280;18549;42.286;22.688;2022-10-17T01:27:24;96946.25;;;13.72
32039;BMP280;18549;42.286;22.688;2022-10-17T01:30:02;96948.09;;;13.69
32039;BMP280;18549;42.286;22.688;2022-10-17T01:32:39;96951.50;;;13.68
32039;BMP280;18549;42.286;22.688;2022-10-17T01:35:10;96941.84;;;13.62
32039;BMP280;18549;42.286;22.688;2022-10-17T01:37:43;96945.41;;;13.58
32039;BMP280;18549;42.286;22.688;2022-10-17T01:40:14;96941.47;;;13.54
32039;BMP280;18549;42.286;22.688;2022-10-17T01:42:45;96941.38;;;13.55
32039;BMP280;18549;42.286;22.688;2022-10-17T01:45:20;96947.19;;;13.56
32039;BMP280;18549;42.286;22.688;2022-10-17T01:47:51;96948.94;;;13.54
32039;BMP280;18549;42.286;22.688;2022-10-17T01:50:22;96948.16;;;13.53
32039;BMP280;18549;42.286;22.688;2022-10-17T01:52:52;96953.19;;;13.52
32039;BMP280;18549;42.286;22.688;2022-10-17T01:55:24;96951.50;;;13.52
32039;BMP280;18549;42.286;22.688;2022-10-17T01:57:54;96956.56;;;13.51
32039;BMP280;18549;42.286;22.688;2022-10-17T02:00:24;96962.50;;;13.49
32039;BMP280;18549;42.286;22.688;2022-10-17T02:02:56;96953.44;;;13.48
32039;BMP280;18549;42.286;22.688;2022-10-17T02:05:27;96966.16;;;13.43
32039;BMP280;18549;42.286;22.688;2022-10-17T02:07:56;96957.06;;;13.42
32039;BMP280;18549;42.286;22.688;2022-10-17T02:10:32;96958.84;;;13.40
32039;BMP280;18549;42.286;22.688;2022-10-17T02:13:08;96964.69;;;13.39
32039;BMP280;18549;42.286;22.688;2022-10-17T02:16:04;96967.28;;;13.38
32039;BMP280;18549;42.286;22.688;2022-10-17T02:18:58;96965.03;;;13.33
32039;BMP280;18549;42.286;22.688;2022-10-17T02:21:30;96971.59;;;13.34
32039;BMP280;18549;42.286;22.688;2022-10-17T02:24:05;96973.53;;;13.29
32039;BMP280;18549;42.286;22.688;2022-10-17T02:26:37;96978.84;;;13.23
32039;BMP280;18549;42.286;22.688;2022-10-17T02:29:11;96973.47;;;13.16
32039;BMP280;18549;42.286;22.688;2022-10-17T02:31:44;96981.47;;;13.05
32039;BMP280;18549;42.286;22.688;2022-10-17T02:34:16;96981.41;;;13.07
32039;BMP280;18549;42.286;22.688;2022-10-17T02:36:49;96984.63;;;13.09
32039;BMP280;18549;42.286;22.688;2022-10-17T02:39:19;96993.22;;;13.03
32039;BMP280;18549;42.286;22.688;2022-10-17T02:41:48;96993.81;;;12.91
32039;BMP280;18549;42.286;22.688;2022-10-17T02:44:16;96991.34;;;12.91
32039;BMP280;18549;42.286;22.688;2022-10-17T02:46:44;96997.94;;;12.92
32039;BMP280;18549;42.286;22.688;2022-10-17T02:49:19;96999.41;;;12.96
32039;BMP280;18549;42.286;22.688;2022-10-17T02:51:52;97006.13;;;12.94
32039;BMP280;18549;42.286;22.688;2022-10-17T02:54:27;97002.91;;;12.92
32039;BMP280;18549;42.286;22.688;2022-10-17T02:57:00;97009.59;;;12.92
32039;BMP280;18549;42.286;22.688;2022-10-17T02:59:29;97010.44;;;12.91
32039;BMP280;18549;42.286;22.688;2022-10-17T03:02:02;97010.53;;;12.89
32039;BMP280;18549;42.286;22.688;2022-10-17T03:04:30;97010.69;;;12.86
32039;BMP280;18549;42.286;22.688;2022-10-17T03:06:57;97012.59;;;12.82
32039;BMP280;18549;42.286;22.688;2022-10-17T03:09:24;97015.97;;;12.81
32039;BMP280;18549;42.286;22.688;2022-10-17T03:11:52;97012.59;;;12.82
32039;BMP280;18549;42.286;22.688;2022-10-17T03:14:19;97020.13;;;12.80
32039;BMP280;18549;42.286;22.688;2022-10-17T03:16:46;97010.28;;;12.79
32039;BMP280;18549;42.286;22.688;2022-10-17T03:19:13;97009.56;;;12.75
32039;BMP280;18549;42.286;22.688;2022-10-17T03:21:41;97016.31;;;12.73
32039;BMP280;18549;42.286;22.688;2022-10-17T03:24:09;97018.09;;;12.71
32039;BMP280;18549;42.286;22.688;2022-10-17T03:26:36;97020.59;;;12.71
32039;BMP280;18549;42.286;22.688;2022-10-17T03:29:03;97013.34;;;12.67
32039;BMP280;18549;42.286;22.688;2022-10-17T03:31:30;97019.28;;;12.64
32039;BMP280;18549;42.286;22.688;2022-10-17T03:33:57;97015.22;;;12.62
32039;BMP280;18549;42.286;22.688;2022-10-17T03:36:24;97012.91;;;12.59
32039;BMP280;18549;42.286;22.688;2022-10-17T03:38:54;97017.06;;;12.58
32039;BMP280;18549;42.286;22.688;2022-10-17T03:41:21;97013.84;;;12.56
32039;BMP280;18549;42.286;22.688;2022-10-17T03:43:48;97016.50;;;12.53
32039;BMP280;18549;42.286;22.688;2022-10-17T03:46:15;97021.69;;;12.49
32039;BMP280;18549;42.286;22.688;2022-10-17T03:48:42;97019.44;;;12.45
32039;BMP280;18549;42.286;22.688;2022-10-17T03:51:09;97016.94;;;12.45
32039;BMP280;18549;42.286;22.688;2022-10-17T03:53:36;97016.06;;;12.46
32039;BMP280;18549;42.286;22.688;2022-10-17T03:56:13;97024.41;;;12.45
32039;BMP280;18549;42.286;22.688;2022-10-17T03:58:40;97020.56;;;12.39
32039;BMP280;18549;42.286;22.688;2022-10-17T04:01:10;97018.06;;;12.39
32039;BMP280;18549;42.286;22.688;2022-10-17T04:03:37;97023.09;;;12.38
32039;BMP280;18549;42.286;22.688;2022-10-17T04:06:05;97023.97;;;12.37
32039;BMP280;18549;42.286;22.688;2022-10-17T04:08:33;97024.19;;;12.32
32039;BMP280;18549;42.286;22.688;2022-10-17T04:11:01;97021.84;;;12.29
32039;BMP280;18549;42.286;22.688;2022-10-17T04:13:30;97027.78;;;12.27
32039;BMP280;18549;42.286;22.688;2022-10-17T04:15:59;97022.88;;;12.25
32039;BMP280;18549;42.286;22.688;2022-10-17T04:18:27;97026.19;;;12.26
32039;BMP280;18549;42.286;22.688;2022-10-17T04:20:54;97028.66;;;12.26
32039;BMP280;18549;42.286;22.688;2022-10-17T04:23:23;97026.41;;;12.21
32039;BMP280;18549;42.286;22.688;2022-10-17T04:25:55;97031.44;;;12.20
32039;BMP280;18549;42.286;22.688;2022-10-17T04:28:22;97029.91;;;12.18
32039;BMP280;18549;42.286;22.688;2022-10-17T04:30:56;97031.50;;;12.18
32039;BMP280;18549;42.286;22.688;2022-10-17T04:33:23;97020.91;;;12.15
32039;BMP280;18549;42.286;22.688;2022-10-17T04:35:55;97030.19;;;12.12
32039;BMP280;18549;42.286;22.688;2022-10-17T04:38:23;97034.34;;;12.11
32039;BMP280;18549;42.286;22.688;2022-10-17T04:40:50;97042.75;;;12.09
32039;BMP280;18549;42.286;22.688;2022-10-17T04:43:17;97036.66;;;11.97
32039;BMP280;18549;42.286;22.688;2022-10-17T04:45:44;97035.94;;;11.95
32039;BMP280;18549;42.286;22.688;2022-10-17T04:48:13;97038.56;;;11.92
32039;BMP280;18549;42.286;22.688;2022-10-17T04:50:40;97043.09;;;11.85
32039;BMP280;18549;42.286;22.688;2022-10-17T04:53:06;97040.69;;;11.83
32039;BMP280;18549;42.286;22.688;2022-10-17T04:55:38;97056.22;;;11.86
32039;BMP280;18549;42.286;22.688;2022-10-17T04:58:07;97055.53;;;11.85
32039;BMP280;18549;42.286;22.688;2022-10-17T05:00:34;97064.44;;;11.88
32039;BMP280;18549;42.286;22.688;2022-10-17T05:03:03;97066.19;;;11.86
32039;BMP280;18549;42.286;22.688;2022-10-17T05:05:31;97062.09;;;11.86
32039;BMP280;18549;42.286;22.688;2022-10-17T05:07:58;97072.03;;;11.86
32039;BMP280;18549;42.286;22.688;2022-10-17T05:10:26;97064.63;;;11.84
32039;BMP280;18549;42.286;22.688;2022-10-17T05:12:52;97068.97;;;11.81
32039;BMP280;18549;42.286;22.688;2022-10-17T05:15:21;97063.97;;;11.81
32039;BMP280;18549;42.286;22.688;2022-10-17T05:17:48;97068.38;;;11.76
32039;BMP280;18549;42.286;22.688;2022-10-17T05:20:22;97069.97;;;11.77
32039;BMP280;18549;42.286;22.688;2022-10-17T05:22:50;97060.16;;;11.74
32039;BMP280;18549;42.286;22.688;2022-10-17T05:25:17;97060.81;;;11.77
32039;BMP280;18549;42.286;22.688;2022-10-17T05:27:46;97073.19;;;11.79
32039;BMP280;18549;42.286;22.688;2022-10-17T05:30:13;97074.78;;;11.80
32039;BMP280;18549;42.286;22.688;2022-10-17T05:32:40;97076.56;;;11.78
32039;BMP280;18549;42.286;22.688;2022-10-17T05:35:07;97072.44;;;11.77
32039;BMP280;18549;42.286;22.688;2022-10-17T05:37:35;97082.37;;;11.77
32039;BMP280;18549;42.286;22.688;2022-10-17T05:40:07;97075.13;;;11.72
32039;BMP280;18549;42.286;22.688;2022-10-17T05:42:35;97080.78;;;11.76
32039;BMP280;18549;42.286;22.688;2022-10-17T05:45:02;97092.31;;;11.77
32039;BMP280;18549;42.286;22.688;2022-10-17T05:47:29;97090.44;;;11.82
32039;BMP280;18549;42.286;22.688;2022-10-17T05:49:56;97091.22;;;11.82
32039;BMP280;18549;42.286;22.688;2022-10-17T05:52:24;97093.31;;;11.73
32039;BMP280;18549;42.286;22.688;2022-10-17T05:54:53;97095.81;;;11.73
32039;BMP280;18549;42.286;22.688;2022-10-17T05:57:23;97091.38;;;11.79
32039;BMP280;18549;42.286;22.688;2022-10-17T05:59:50;97096.09;;;11.85
32039;BMP280;18549;42.286;22.688;2022-10-17T06:02:17;97091.75;;;11.88
32039;BMP280;18549;42.286;22.688;2022-10-17T06:04:44;97104.94;;;11.90
32039;BMP280;18549;42.286;22.688;2022-10-17T06:07:13;97100.75;;;11.91
32039;BMP280;18549;42.286;22.688;2022-10-17T06:09:40;97105.59;;;11.94
32039;BMP280;18549;42.286;22.688;2022-10-17T06:12:10;97104.50;;;11.99
32039;BMP280;18549;42.286;22.688;2022-10-17T06:14:38;97109.94;;;12.07
32039;BMP280;18549;42.286;22.688;2022-10-17T06:17:06;97113.97;;;12.10
32039;BMP280;18549;42.286;22.688;2022-10-17T06:19:33;97109.72;;;12.12
32039;BMP280;18549;42.286;22.688;2022-10-17T06:21:59;97114.41;;;12.18
32039;BMP280;18549;42.286;22.688;2022-10-17T06:24:27;97120.06;;;12.21
32039;BMP280;18549;42.286;22.688;2022-10-17T06:26:54;97121.13;;;12.16
32039;BMP280;18549;42.286;22.688;2022-10-17T06:29:23;97125.16;;;12.18
32039;BMP280;18549;42.286;22.688;2022-10-17T06:31:54;97120.78;;;12.23
32039;BMP280;18549;42.286;22.688;2022-10-17T06:34:21;97131.25;;;12.29
32039;BMP280;18549;42.286;22.688;2022-10-17T06:36:48;97130.09;;;12.36
32039;BMP280;18549;42.286;22.688;2022-10-17T06:39:15;97130.41;;;12.47
32039;BMP280;18549;42.286;22.688;2022-10-17T06:41:42;97138.28;;;12.55
32039;BMP280;18549;42.286;22.688;2022-10-17T06:44:09;97128.97;;;12.60
32039;BMP280;18549;42.286;22.688;2022-10-17T06:46:36;97138.69;;;12.64
32039;BMP280;18549;42.286;22.688;2022-10-17T06:49:08;97135.03;;;12.71
32039;BMP280;18549;42.286;22.688;2022-10-17T06:51:36;97132.28;;;12.76
32039;BMP280;18549;42.286;22.688;2022-10-17T06:54:03;97134.53;;;12.82
32039;BMP280;18549;42.286;22.688;2022-10-17T06:56:30;97136.81;;;12.86
32039;BMP280;18549;42.286;22.688;2022-10-17T06:58:58;97132.56;;;12.88
32039;BMP280;18549;42.286;22.688;2022-10-17T07:01:25;97134.09;;;12.90
32039;BMP280;18549;42.286;22.688;2022-10-17T07:03:56;97133.88;;;12.95
32039;BMP280;18549;42.286;22.688;2022-10-17T07:06:24;97132.03;;;12.98
32039;BMP280;18549;42.286;22.688;2022-10-17T07:08:52;97132.12;;;12.97
32039;BMP280;18549;42.286;22.688;2022-10-17T07:11:21;97134.28;;;13.03
32039;BMP280;18549;42.286;22.688;2022-10-17T07:13:49;97124.78;;;13.11
32039;BMP280;18549;42.286;22.688;2022-10-17T07:16:18;97117.81;;;13.17
32039;BMP280;18549;42.286;22.688;2022-10-17T07:18:48;97125.69;;;13.25
32039;BMP280;18549;42.286;22.688;2022-10-17T07:21:14;97127.78;;;13.32
32039;BMP280;18549;42.286;22.688;2022-10-17T07:23:43;97125.72;;;13.40
32039;BMP280;18549;42.286;22.688;2022-10-17T07:26:11;97128.63;;;13.48
32039;BMP280;18549;42.286;22.688;2022-10-17T07:28:43;97123.34;;;13.54
32039;BMP280;18549;42.286;22.688;2022-10-17T07:31:11;97125.44;;;13.61
32039;BMP280;18549;42.286;22.688;2022-10-17T07:33:40;97120.03;;;13.69
32039;BMP280;18549;42.286;22.688;2022-10-17T07:36:07;97124.66;;;13.76
32039;BMP280;18549;42.286;22.688;2022-10-17T07:38:35;97131.56;;;13.86
32039;BMP280;18549;42.286;22.688;2022-10-17T07:41:05;97113.22;;;13.87
32039;BMP280;18549;42.286;22.688;2022-10-17T07:43:33;97118.84;;;13.91
32039;BMP280;18549;42.286;22.688;2022-10-17T07:46:01;97119.34;;;13.97
32039;BMP280;18549;42.286;22.688;2022-10-17T07:48:29;97117.25;;;14.05
32039;BMP280;18549;42.286;22.688;2022-10-17T07:50:56;97115.31;;;14.10
32039;BMP280;18549;42.286;22.688;2022-10-17T07:53:23;97110.91;;;14.15
32039;BMP280;18549;42.286;22.688;2022-10-17T07:55:50;97103.44;;;14.15
32039;BMP280;18549;42.286;22.688;2022-10-17T07:58:18;97105.50;;;14.22
32039;BMP280;18549;42.286;22.688;2022-10-17T08:00:45;97093.50;;;14.29
32039;BMP280;18549;42.286;22.688;2022-10-17T08:03:13;97084.56;;;14.40
32039;BMP280;18549;42.286;22.688;2022-10-17T08:05:40;97087.22;;;14.51
32039;BMP280;18549;42.286;22.688;2022-10-17T08:08:07;97085.12;;;14.59
32039;BMP280;18549;42.286;22.688;2022-10-17T08:10:36;97091.28;;;14.67
32039;BMP280;18549;42.286;22.688;2022-10-17T08:13:03;97079.19;;;14.75
32039;BMP280;18549;42.286;22.688;2022-10-17T08:15:32;97081.16;;;14.84
32039;BMP280;18549;42.286;22.688;2022-10-17T08:17:59;97082.94;;;14.96
32039;BMP280;18549;42.286;22.688;2022-10-17T08:20:27;97084.81;;;15.06
32039;BMP280;18549;42.286;22.688;2022-10-17T08:22:56;97084.72;;;15.08
32039;BMP280;18549;42.286;22.688;2022-10-17T08:25:24;97085.31;;;15.13
32039;BMP280;18549;42.286;22.688;2022-10-17T08:27:51;97077.47;;;15.18
32039;BMP280;18549;42.286;22.688;2022-10-17T08:30:18;97089.03;;;15.33
32039;BMP280;18549;42.286;22.688;2022-10-17T08:32:50;97084.22;;;15.44
32039;BMP280;18549;42.286;22.688;2022-10-17T08:35:18;97087.69;;;15.55
32039;BMP280;18549;42.286;22.688;2022-10-17T08:37:47;97089.00;;;15.61
32039;BMP280;18549;42.286;22.688;2022-10-17T08:40:16;97086.78;;;15.70
32039;BMP280;18549;42.286;22.688;2022-10-17T08:42:55;97086.75;;;15.84
32039;BMP280;18549;42.286;22.688;2022-10-17T08:45:31;97086.09;;;15.94
32039;BMP280;18549;42.286;22.688;2022-10-17T08:48:03;97086.72;;;15.98
32039;BMP280;18549;42.286;22.688;2022-10-17T08:50:36;97087.94;;;16.05
32039;BMP280;18549;42.286;22.688;2022-10-17T08:53:10;97086.75;;;16.10
32039;BMP280;18549;42.286;22.688;2022-10-17T08:55:44;97096.41;;;16.16
32039;BMP280;18549;42.286;22.688;2022-10-17T08:58:12;97089.22;;;16.24
32039;BMP280;18549;42.286;22.688;2022-10-17T09:00:42;97082.94;;;16.31
32039;BMP280;18549;42.286;22.688;2022-10-17T09:03:27;97082.87;;;16.45
32039;BMP280;18549;42.286;22.688;2022-10-17T09:06:12;97078.69;;;16.57
32039;BMP280;18549;42.286;22.688;2022-10-17T09:08:46;97090.44;;;16.69
32039;BMP280;18549;42.286;22.688;2022-10-17T09:11:24;97082.91;;;16.82
32039;BMP280;18549;42.286;22.688;2022-10-17T09:14:03;97081.91;;;16.84
32039;BMP280;18549;42.286;22.688;2022-10-17T09:16:43;97083.75;;;16.94
32039;BMP280;18549;42.286;22.688;2022-10-17T09:19:18;97079.41;;;17.09
32039;BMP280;18549;42.286;22.688;2022-10-17T09:21:51;97081.16;;;17.20
32039;BMP280;18549;42.286;22.688;2022-10-17T09:24:22;97078.66;;;17.33
32039;BMP280;18549;42.286;22.688;2022-10-17T09:26:59;97075.72;;;17.39
32039;BMP280;18549;42.286;22.688;2022-10-17T09:29:28;97073.09;;;17.40
32039;BMP280;18549;42.286;22.688;2022-10-17T09:32:00;97070.50;;;17.42
32039;BMP280;18549;42.286;22.688;2022-10-17T09:34:31;97063.03;;;17.52
32039;BMP280;18549;42.286;22.688;2022-10-17T09:37:02;97068.44;;;17.59
32039;BMP280;18549;42.286;22.688;2022-10-17T09:39:33;97058.41;;;17.71
32039;BMP280;18549;42.286;22.688;2022-10-17T09:42:00;97057.44;;;17.84
32039;BMP280;18549;42.286;22.688;2022-10-17T09:44:31;97060.53;;;17.88
32039;BMP280;18549;42.286;22.688;2022-10-17T09:49:56;97058.78;;;18.01
32039;BMP280;18549;42.286;22.688;2022-10-17T09:52:28;97054.44;;;18.15
32039;BMP280;18549;42.286;22.688;2022-10-17T09:54:59;97051.59;;;18.19
32039;BMP280;18549;42.286;22.688;2022-10-17T09:57:53;97053.19;;;18.20
32039;BMP280;18549;42.286;22.688;2022-10-17T10:00:22;97056.75;;;18.29
32039;BMP280;18549;42.286;22.688;2022-10-17T10:02:50;97049.06;;;18.43
32039;BMP280;18549;42.286;22.688;2022-10-17T10:05:19;97053.19;;;18.54
32039;BMP280;18549;42.286;22.688;2022-10-17T10:08:00;97039.88;;;18.65
32039;BMP280;18549;42.286;22.688;2022-10-17T10:10:29;97031.31;;;18.78
32039;BMP280;18549;42.286;22.688;2022-10-17T10:13:03;97037.03;;;18.91
32039;BMP280;18549;42.286;22.688;2022-10-17T10:15:35;97033.91;;;19.11
32039;BMP280;18549;42.286;22.688;2022-10-17T10:18:29;97025.88;;;19.17
32039;BMP280;18549;42.286;22.688;2022-10-17T10:21:10;97019.25;;;19.26
32039;BMP280;18549;42.286;22.688;2022-10-17T10:23:39;97021.06;;;19.35
32039;BMP280;18549;42.286;22.688;2022-10-17T10:26:25;97014.44;;;19.45
32039;BMP280;18549;42.286;22.688;2022-10-17T10:28:55;97012.81;;;19.44
32039;BMP280;18549;42.286;22.688;2022-10-17T10:31:32;97007.66;;;19.56
32039;BMP280;18549;42.286;22.688;2022-10-17T10:34:10;97008.19;;;19.71
32039;BMP280;18549;42.286;22.688;2022-10-17T10:36:50;96997.91;;;19.84
32039;BMP280;18549;42.286;22.688;2022-10-17T10:42:22;96996.63;;;20.10
32039;BMP280;18549;42.286;22.688;2022-10-17T10:44:50;97006.50;;;20.13
32039;BMP280;18549;42.286;22.688;2022-10-17T10:47:23;97008.03;;;20.25
32039;BMP280;18549;42.286;22.688;2022-10-17T10:49:52;97003.78;;;20.25
32039;BMP280;18549;42.286;22.688;2022-10-17T10:52:29;96997.03;;;20.26
32039;BMP280;18549;42.286;22.688;2022-10-17T10:55:13;96994.81;;;20.32
32039;BMP280;18549;42.286;22.688;2022-10-17T10:57:43;96994.41;;;20.48
32039;BMP280;18549;42.286;22.688;2022-10-17T11:00:15;96991.63;;;20.50
32039;BMP280;18549;42.286;22.688;2022-10-17T11:02:48;96994.53;;;20.66
32039;BMP280;18549;42.286;22.688;2022-10-17T11:05:23;96986.28;;;20.84
32039;BMP280;18549;42.286;22.688;2022-10-17T11:07:58;96981.78;;;20.97
32039;BMP280;18549;42.286;22.688;2022-10-17T11:10:34;96975.00;;;21.18
32039;BMP280;18549;42.286;22.688;2022-10-17T11:13:05;96977.81;;;21.34
32039;BMP280;18549;42.286;22.688;2022-10-17T11:15:44;96972.84;;;21.43
32039;BMP280;18549;42.286;22.688;2022-10-17T11:18:18;96969.28;;;21.55
32039;BMP280;18549;42.286;22.688;2022-10-17T11:20:52;96972.59;;;21.65
32039;BMP280;18549;42.286;22.688;2022-10-17T11:23:29;96971.25;;;21.61
32039;BMP280;18549;42.286;22.688;2022-10-17T11:26:01;96969.69;;;21.69
32039;BMP280;18549;42.286;22.688;2022-10-17T11:28:30;96970.34;;;21.81
32039;BMP280;18549;42.286;22.688;2022-10-17T11:31:01;96965.44;;;21.79
32039;BMP280;18549;42.286;22.688;2022-10-17T11:33:34;96960.66;;;21.85
32039;BMP280;18549;42.286;22.688;2022-10-17T11:36:05;96957.56;;;21.73
32039;BMP280;18549;42.286;22.688;2022-10-17T11:38:53;96958.53;;;21.90
32039;BMP280;18549;42.286;22.688;2022-10-17T11:41:28;96958.66;;;22.08
32039;BMP280;18549;42.286;22.688;2022-10-17T11:43:58;96946.16;;;22.06
32039;BMP280;18549;42.286;22.688;2022-10-17T11:46:27;96945.50;;;22.04
32039;BMP280;18549;42.286;22.688;2022-10-17T11:49:05;96950.69;;;22.03
32039;BMP280;18549;42.286;22.688;2022-10-17T11:51:40;96948.19;;;22.12
32039;BMP280;18549;42.286;22.688;2022-10-17T11:54:13;96948.69;;;22.25
32039;BMP280;18549;42.286;22.688;2022-10-17T11:56:46;96945.25;;;22.26
32039;BMP280;18549;42.286;22.688;2022-10-17T11:59:40;96942.81;;;22.34
32039;BMP280;18549;42.286;22.688;2022-10-17T12:02:16;96934.12;;;22.46
32039;BMP280;18549;42.286;22.688;2022-10-17T12:04:55;96935.84;;;22.54
32039;BMP280;18549;42.286;22.688;2022-10-17T12:07:37;96937.19;;;22.58
32039;BMP280;18549;42.286;22.688;2022-10-17T12:10:23;96932.22;;;22.66
32039;BMP280;18549;42.286;22.688;2022-10-17T12:12:50;96933.81;;;22.67
32039;BMP280;18549;42.286;22.688;2022-10-17T12:15:29;96934.41;;;22.52
32039;BMP280;18549;42.286;22.688;2022-10-17T12:17:57;96938.44;;;22.36
32039;BMP280;18549;42.286;22.688;2022-10-17T12:20:33;96930.50;;;22.21
32039;BMP280;18549;42.286;22.688;2022-10-17T12:23:25;96936.59;;;22.10
32039;BMP280;18549;42.286;22.688;2022-10-17T12:25:57;96943.38;;;21.90
32039;BMP280;18549;42.286;22.688;2022-10-17T12:28:27;96938.59;;;21.69
32039;BMP280;18549;42.286;22.688;2022-10-17T12:30:57;96935.78;;;21.53
32039;BMP280;18549;42.286;22.688;2022-10-17T12:33:31;96928.97;;;21.35
32039;BMP280;18549;42.286;22.688;2022-10-17T12:42:46;96926.31;;;20.88
32039;BMP280;18549;42.286;22.688;2022-10-17T12:45:47;96938.88;;;20.79
32039;BMP280;18549;42.286;22.688;2022-10-17T12:49:00;96933.12;;;20.67
32039;BMP280;18549;42.286;22.688;2022-10-17T12:51:29;96931.66;;;20.65
32039;BMP280;18549;42.286;22.688;2022-10-17T12:54:16;96930.56;;;20.58
32039;BMP280;18549;42.286;22.688;2022-10-17T12:56:45;96932.75;;;20.51
32039;BMP280;18549;42.286;22.688;2022-10-17T12:59:16;96922.25;;;20.47
32039;BMP280;18549;42.286;22.688;2022-10-17T13:01:48;96925.16;;;20.42
32039;BMP280;18549;42.286;22.688;2022-10-17T13:04:20;96922.78;;;20.41
32039;BMP280;18549;42.286;22.688;2022-10-17T13:06:50;96926.88;;;20.42
32039;BMP280;18549;42.286;22.688;2022-10-17T13:09:28;96920.25;;;20.41
32039;BMP280;18549;42.286;22.688;2022-10-17T13:11:58;96916.91;;;20.40
32039;BMP280;18549;42.286;22.688;2022-10-17T13:14:27;96916.38;;;20.37
32039;BMP280;18549;42.286;22.688;2022-10-17T13:16:56;96914.13;;;20.34
32039;BMP280;18549;42.286;22.688;2022-10-17T13:19:25;96909.19;;;20.32
32039;BMP280;18549;42.286;22.688;2022-10-17T13:21:53;96914.50;;;20.29
32039;BMP280;18549;42.286;22.688;2022-10-17T13:24:28;96912.78;;;20.30
32039;BMP280;18549;42.286;22.688;2022-10-17T13:26:56;96916.19;;;20.29
32039;BMP280;18549;42.286;22.688;2022-10-17T13:29:24;96918.12;;;20.16
32039;BMP280;18549;42.286;22.688;2022-10-17T13:31:55;96910.88;;;20.22
32039;BMP280;18549;42.286;22.688;2022-10-17T13:34:26;96908.22;;;20.24
32039;BMP280;18549;42.286;22.688;2022-10-17T13:36:55;96902.75;;;20.19
32039;BMP280;18549;42.286;22.688;2022-10-17T13:39:23;96913.50;;;20.21
32039;BMP280;18549;42.286;22.688;2022-10-17T13:41:52;96901.97;;;20.18
32039;BMP280;18549;42.286;22.688;2022-10-17T13:44:21;96905.00;;;20.22
32039;BMP280;18549;42.286;22.688;2022-10-17T13:46:49;96904.91;;;20.23
32039;BMP280;18549;42.286;22.688;2022-10-17T13:49:22;96917.69;;;20.31
32039;BMP280;18549;42.286;22.688;2022-10-17T13:51:53;96912.69;;;20.41
32039;BMP280;18549;42.286;22.688;2022-10-17T13:54:38;96917.00;;;20.50
32039;BMP280;18549;42.286;22.688;2022-10-17T13:57:16;96906.16;;;20.58
32039;BMP280;18549;42.286;22.688;2022-10-17T13:59:45;96907.94;;;20.67
32039;BMP280;18549;42.286;22.688;2022-10-17T14:02:14;96906.00;;;20.80
32039;BMP280;18549;42.286;22.688;2022-10-17T14:04:43;96904.81;;;20.84
32039;BMP280;18549;42.286;22.688;2022-10-17T14:07:22;96913.19;;;20.84
32039;BMP280;18549;42.286;22.688;2022-10-17T14:09:50;96906.28;;;20.86
32039;BMP280;18549;42.286;22.688;2022-10-17T14:12:18;96910.50;;;20.86
32039;BMP280;18549;42.286;22.688;2022-10-17T14:14:48;96908.13;;;20.84
32039;BMP280;18549;42.286;22.688;2022-10-17T14:17:21;96910.78;;;20.83
32039;BMP280;18549;42.286;22.688;2022-10-17T14:19:52;96909.56;;;20.78
32039;BMP280;18549;42.286;22.688;2022-10-17T14:22:25;96917.94;;;20.78
32039;BMP280;18549;42.286;22.688;2022-10-17T14:24:53;96914.31;;;20.71
32039;BMP280;18549;42.286;22.688;2022-10-17T14:27:26;96917.09;;;20.68
32039;BMP280;18549;42.286;22.688;2022-10-17T14:29:57;96922.63;;;20.62
32039;BMP280;18549;42.286;22.688;2022-10-17T14:32:28;96921.84;;;20.62
32039;BMP280;18549;42.286;22.688;2022-10-17T14:35:00;96931.34;;;20.58
32039;BMP280;18549;42.286;22.688;2022-10-17T14:37:31;96928.66;;;20.50